sensor_id;sensor_type;location;lat;lon;timestamp;pressure;altitude;pressure_sealevel;temperature;humidity
37758;BME280;23599;50.304;18.928;2022-10-24T06:41:43;101683.58;;;14.82;85.55
37758;BME280;23599;50.304;18.928;2022-10-24T06:41:57;101679.95;;;14.91;85.36
37758;BME280;23599;50.304;18.928;2022-10-24T06:42:12;101677.19;;;15.01;85.12
37758;BME280;23599;50.304;18.928;2022-10-24T06:42:25;101673.83;;;15.07;84.94
37758;BME280;23599;50.304;18.928;2022-10-24T06:42:38;101677.83;;;15.13;84.80
37758;BME280;23599;50.304;18.928;2022-10-24T06:42:51;101680.84;;;15.20;84.69
37758;BME280;23599;50.304;18.928;2022-10-24T06:43:04;101675.77;;;15.25;84.58
37758;BME280;23599;50.304;18.928;2022-10-24T06:43:17;101677.88;;;15.31;84.48
37758;BME280;23599;50.304;18.928;2022-10-24T06:43:24;101681.34;;;15.33;84.50
37758;BME280;23599;50.304;18.928;2022-10-24T06:43:29;101676.58;;;15.35;84.31
37758;BME280;23599;50.304;18.928;2022-10-24T06:43:43;101675.23;;;15.39;84.28
37758;BME280;23599;50.304;18.928;2022-10-24T06:43:56;101671.18;;;15.43;84.21
37758;BME280;23599;50.304;18.928;2022-10-24T06:44:09;101679.09;;;15.46;84.14
37758;BME280;23599;50.304;18.928;2022-10-24T06:44:22;101676.74;;;15.51;84.09
37758;BME280;23599;50.304;18.928;2022-10-24T06:44:35;101677.47;;;15.53;84.03
37758;BME280;23599;50.304;18.928;2022-10-24T06:44:38;101678.14;;;15.55;84.03
37758;BME280;23599;50.304;18.928;2022-10-24T06:44:51;101675.26;;;15.57;83.94
37758;BME280;23599;50.304;18.928;2022-10-24T06:45:06;101677.55;;;15.62;83.87
37758;BME280;23599;50.304;18.928;2022-10-24T06:45:18;101675.48;;;15.64;83.83
37758;BME280;23599;50.304;18.928;2022-10-24T06:45:38;101680.50;;;15.68;83.76
37758;BME280;23599;50.304;18.928;2022-10-24T06:45:51;101674.91;;;15.70;83.71
37758;BME280;23599;50.304;18.928;2022-10-24T06:46:08;101679.23;;;15.72;83.67
37758;BME280;23599;50.304;18.928;2022-10-24T06:46:22;101674.42;;;15.74;83.59
37758;BME280;23599;50.304;18.928;2022-10-24T06:46:35;101675.98;;;15.77;83.54
37758;BME280;23599;50.304;18.928;2022-10-24T06:46:50;101676.55;;;15.80;83.49
37758;BME280;23599;50.304;18.928;2022-10-24T06:47:05;101674.52;;;15.83;83.44
37758;BME280;23599;50.304;18.928;2022-10-24T06:47:19;101673.35;;;15.85;83.39
37758;BME280;23599;50.304;18.928;2022-10-24T06:47:32;101675.91;;;15.87;83.34
37758;BME280;23599;50.304;18.928;2022-10-24T06:47:45;101676.63;;;15.89;83.30
37758;BME280;23599;50.304;18.928;2022-10-24T06:47:46;101674.20;;;15.86;83.26
37758;BME280;23599;50.304;18.928;2022-10-24T06:48:01;101673.56;;;15.92;83.24
37758;BME280;23599;50.304;18.928;2022-10-24T06:48:14;101671.53;;;15.94;83.19
37758;BME280;23599;50.304;18.928;2022-10-24T06:48:30;101676.70;;;15.97;83.13
37758;BME280;23599;50.304;18.928;2022-10-24T06:48:43;101671.92;;;15.99;83.07
37758;BME280;23599;50.304;18.928;2022-10-24T06:48:59;101678.12;;;16.01;82.96
37758;BME280;23599;50.304;18.928;2022-10-24T06:49:12;101674.34;;;16.02;82.89
37758;BME280;23599;50.304;18.928;2022-10-24T06:49:30;101669.38;;;16.06;82.84
37758;BME280;23599;50.304;18.928;2022-10-24T06:49:44;101668.38;;;16.07;82.80
37758;BME280;23599;50.304;18.928;2022-10-24T06:49:57;101663.58;;;16.09;82.76
37758;BME280;23599;50.304;18.928;2022-10-24T06:50:09;101667.88;;;16.11;82.70
37758;BME280;23599;50.304;18.928;2022-10-24T06:50:22;101665.00;;;16.13;82.71
37758;BME280;23599;50.304;18.928;2022-10-24T06:50:38;101674.80;;;16.15;82.60
37758;BME280;23599;50.304;18.928;2022-10-24T06:50:56;101669.84;;;16.19;82.58
37758;BME280;23599;50.304;18.928;2022-10-24T06:50:57;101664.35;;;16.19;82.59
37758;BME280;23599;50.304;18.928;2022-10-24T06:51:02;101661.60;;;16.19;82.66
37758;BME280;23599;50.304;18.928;2022-10-24T06:51:08;101668.84;;;16.20;82.55
37758;BME280;23599;50.304;18.928;2022-10-24T06:51:23;101672.11;;;16.23;82.55
37758;BME280;23599;50.304;18.928;2022-10-24T06:51:36;101675.71;;;16.24;82.45
37758;BME280;23599;50.304;18.928;2022-10-24T06:51:49;101677.27;;;16.27;82.32
37758;BME280;23599;50.304;18.928;2022-10-24T06:52:02;101671.63;;;16.28;82.19
37758;BME280;23599;50.304;18.928;2022-10-24T06:52:15;101678.84;;;16.29;82.07
37758;BME280;23599;50.304;18.928;2022-10-24T06:52:20;101676.95;;;16.30;82.00
37758;BME280;23599;50.304;18.928;2022-10-24T06:52:32;101673.02;;;16.32;82.00
37758;BME280;23599;50.304;18.928;2022-10-24T06:52:45;101672.02;;;16.33;81.95
37758;BME280;23599;50.304;18.928;2022-10-24T06:52:59;101673.73;;;16.34;81.90
37758;BME280;23599;50.304;18.928;2022-10-24T06:53:12;101666.35;;;16.35;81.81
37758;BME280;23599;50.304;18.928;2022-10-24T06:53:25;101677.18;;;16.36;81.73
37758;BME280;23599;50.304;18.928;2022-10-24T06:53:39;101675.15;;;16.38;81.65
37758;BME280;23599;50.304;18.928;2022-10-24T06:53:52;101680.45;;;16.40;81.58
37758;BME280;23599;50.304;18.928;2022-10-24T06:54:05;101684.95;;;16.41;81.50
37758;BME280;23599;50.304;18.928;2022-10-24T06:54:07;101683.05;;;16.41;81.49
37758;BME280;23599;50.304;18.928;2022-10-24T06:54:21;101681.02;;;16.43;81.42
37758;BME280;23599;50.304;18.928;2022-10-24T06:54:26;101676.52;;;16.42;81.38
37758;BME280;23599;50.304;18.928;2022-10-24T06:54:39;101681.70;;;16.45;81.33
37758;BME280;23599;50.304;18.928;2022-10-24T06:54:55;101683.43;;;16.46;81.25
37758;BME280;23599;50.304;18.928;2022-10-24T06:55:08;101684.28;;;16.47;81.16
37758;BME280;23599;50.304;18.928;2022-10-24T06:55:13;101685.13;;;16.48;81.07
37758;BME280;23599;50.304;18.928;2022-10-24T06:55:26;101687.55;;;16.51;81.08
37758;BME280;23599;50.304;18.928;2022-10-24T06:55:39;101688.45;;;16.51;80.99
37758;BME280;23599;50.304;18.928;2022-10-24T06:55:51;101690.16;;;16.52;80.90
37758;BME280;23599;50.304;18.928;2022-10-24T06:56:07;101698.24;;;16.54;80.79
37758;BME280;23599;50.304;18.928;2022-10-24T06:56:21;101692.76;;;16.54;80.69
37758;BME280;23599;50.304;18.928;2022-10-24T06:56:37;101691.72;;;16.55;80.58
37758;BME280;23599;50.304;18.928;2022-10-24T06:56:50;101694.30;;;16.56;80.50
37758;BME280;23599;50.304;18.928;2022-10-24T06:57:04;101694.99;;;16.58;80.41
37758;BME280;23599;50.304;18.928;2022-10-24T06:57:17;101697.73;;;16.58;80.29
37758;BME280;23599;50.304;18.928;2022-10-24T06:57:19;101693.27;;;16.57;80.27
37758;BME280;23599;50.304;18.928;2022-10-24T06:57:32;101700.33;;;16.60;80.19
37758;BME280;23599;50.304;18.928;2022-10-24T06:57:48;101699.30;;;16.61;80.09
37758;BME280;23599;50.304;18.928;2022-10-24T06:58:00;101697.45;;;16.61;79.95
37758;BME280;23599;50.304;18.928;2022-10-24T06:58:13;101695.55;;;16.62;79.81
37758;BME280;23599;50.304;18.928;2022-10-24T06:58:31;101702.75;;;16.63;79.73
37758;BME280;23599;50.304;18.928;2022-10-24T06:58:47;101693.47;;;16.64;79.68
37758;BME280;23599;50.304;18.928;2022-10-24T06:59:02;101696.07;;;16.65;79.61
37758;BME280;23599;50.304;18.928;2022-10-24T06:59:16;101689.55;;;16.66;79.54
37758;BME280;23599;50.304;18.928;2022-10-24T06:59:30;101694.18;;;16.66;79.50
37758;BME280;23599;50.304;18.928;2022-10-24T06:59:43;101693.00;;;16.68;79.43
37758;BME280;23599;50.304;18.928;2022-10-24T06:59:56;101694.74;;;16.70;79.37
37758;BME280;23599;50.304;18.928;2022-10-24T07:00:10;101697.48;;;16.70;79.32
37758;BME280;23599;50.304;18.928;2022-10-24T07:00:25;101696.45;;;16.71;79.30
37758;BME280;23599;50.304;18.928;2022-10-24T07:00:27;101691.81;;;16.71;79.29
37758;BME280;23599;50.304;18.928;2022-10-24T07:00:41;101695.27;;;16.73;79.22
37758;BME280;23599;50.304;18.928;2022-10-24T07:00:54;101692.52;;;16.73;79.14
37758;BME280;23599;50.304;18.928;2022-10-24T07:01:13;101696.12;;;16.74;79.05
37758;BME280;23599;50.304;18.928;2022-10-24T07:01:26;101687.73;;;16.75;78.97
37758;BME280;23599;50.304;18.928;2022-10-24T07:01:30;101685.99;;;16.74;79.02
37758;BME280;23599;50.304;18.928;2022-10-24T07:01:36;101689.44;;;16.76;78.89
37758;BME280;23599;50.304;18.928;2022-10-24T07:01:49;101693.96;;;16.77;78.88
37758;BME280;23599;50.304;18.928;2022-10-24T07:02:02;101696.70;;;16.77;78.79
37758;BME280;23599;50.304;18.928;2022-10-24T07:02:15;101698.41;;;16.78;78.73
37758;BME280;23599;50.304;18.928;2022-10-24T07:02:29;101692.77;;;16.80;78.67
37758;BME280;23599;50.304;18.928;2022-10-24T07:02:41;101696.38;;;16.80;78.62
37758;BME280;23599;50.304;18.928;2022-10-24T07:02:54;101691.74;;;16.81;78.56
37758;BME280;23599;50.304;18.928;2022-10-24T07:03:15;101700.69;;;16.83;78.55
37758;BME280;23599;50.304;18.928;2022-10-24T07:03:28;101693.12;;;16.85;78.58
37758;BME280;23599;50.304;18.928;2022-10-24T07:03:29;101695.00;;;16.84;78.57
37758;BME280;23599;50.304;18.928;2022-10-24T07:03:44;101693.12;;;16.85;78.54
37758;BME280;23599;50.304;18.928;2022-10-24T07:03:57;101691.92;;;16.87;78.48
37758;BME280;23599;50.304;18.928;2022-10-24T07:04:11;101690.92;;;16.88;78.42
37758;BME280;23599;50.304;18.928;2022-10-24T07:04:24;101685.25;;;16.90;78.32
37758;BME280;23599;50.304;18.928;2022-10-24T07:04:38;101691.45;;;16.92;78.20
37758;BME280;23599;50.304;18.928;2022-10-24T07:04:51;101687.70;;;16.93;78.11
37758;BME280;23599;50.304;18.928;2022-10-24T07:05:05;101695.05;;;16.93;78.06
37758;BME280;23599;50.304;18.928;2022-10-24T07:05:24;101691.82;;;16.97;78.06
37758;BME280;23599;50.304;18.928;2022-10-24T07:05:36;101692.67;;;16.98;77.99
37758;BME280;23599;50.304;18.928;2022-10-24T07:05:49;101693.55;;;16.98;77.89
37758;BME280;23599;50.304;18.928;2022-10-24T07:06:27;101685.84;;;17.02;77.83
37758;BME280;23599;50.304;18.928;2022-10-24T07:06:40;101687.55;;;17.03;77.77
37758;BME280;23599;50.304;18.928;2022-10-24T07:06:42;101687.40;;;17.04;77.77
37758;BME280;23599;50.304;18.928;2022-10-24T07:06:55;101682.76;;;17.05;77.67
37758;BME280;23599;50.304;18.928;2022-10-24T07:07:17;101689.95;;;17.06;77.56
37758;BME280;23599;50.304;18.928;2022-10-24T07:07:21;101688.95;;;17.07;77.48
37758;BME280;23599;50.304;18.928;2022-10-24T07:07:35;101687.91;;;17.08;77.47
37758;BME280;23599;50.304;18.928;2022-10-24T07:07:48;101691.37;;;17.10;77.40
37758;BME280;23599;50.304;18.928;2022-10-24T07:08:02;101689.48;;;17.10;77.32
37758;BME280;23599;50.304;18.928;2022-10-24T07:08:16;101692.92;;;17.13;77.23
37758;BME280;23599;50.304;18.928;2022-10-24T07:08:29;101690.17;;;17.13;77.13
37758;BME280;23599;50.304;18.928;2022-10-24T07:08:43;101693.63;;;17.15;77.17
37758;BME280;23599;50.304;18.928;2022-10-24T07:08:58;101693.63;;;17.15;77.02
37758;BME280;23599;50.304;18.928;2022-10-24T07:09:12;101691.55;;;17.17;76.98
37758;BME280;23599;50.304;18.928;2022-10-24T07:09:26;101690.55;;;17.18;76.92
37758;BME280;23599;50.304;18.928;2022-10-24T07:09:40;101695.00;;;17.19;76.86
37758;BME280;23599;50.304;18.928;2022-10-24T07:09:43;101687.60;;;17.19;76.84
37758;BME280;23599;50.304;18.928;2022-10-24T07:09:53;101690.55;;;17.18;76.92
37758;BME280;23599;50.304;18.928;2022-10-24T07:10:09;101685.56;;;17.21;76.84
37758;BME280;23599;50.304;18.928;2022-10-24T07:10:23;101683.52;;;17.23;76.76
37758;BME280;23599;50.304;18.928;2022-10-24T07:10:28;101685.41;;;17.23;76.89
37758;BME280;23599;50.304;18.928;2022-10-24T07:10:41;101687.98;;;17.24;76.70
37758;BME280;23599;50.304;18.928;2022-10-24T07:10:56;101696.07;;;17.26;76.54
37758;BME280;23599;50.304;18.928;2022-10-24T07:11:09;101689.72;;;17.25;76.42
37758;BME280;23599;50.304;18.928;2022-10-24T07:11:24;101695.22;;;17.25;76.34
37758;BME280;23599;50.304;18.928;2022-10-24T07:11:37;101698.66;;;17.27;76.28
37758;BME280;23599;50.304;18.928;2022-10-24T07:11:45;101686.95;;;17.25;76.12
37758;BME280;23599;50.304;18.928;2022-10-24T07:11:58;101695.73;;;17.29;76.27
37758;BME280;23599;50.304;18.928;2022-10-24T07:12:13;101700.22;;;17.30;76.23
37758;BME280;23599;50.304;18.928;2022-10-24T07:12:26;101698.32;;;17.30;76.15
37758;BME280;23599;50.304;18.928;2022-10-24T07:12:39;101698.32;;;17.30;76.08
37758;BME280;23599;50.304;18.928;2022-10-24T07:12:54;101703.64;;;17.32;76.03
37758;BME280;23599;50.304;18.928;2022-10-24T07:12:55;101702.77;;;17.31;76.01
37758;BME280;23599;50.304;18.928;2022-10-24T07:13:06;101703.64;;;17.32;76.25
37758;BME280;23599;50.304;18.928;2022-10-24T07:13:20;101699.88;;;17.33;75.97
37758;BME280;23599;50.304;18.928;2022-10-24T07:13:33;101711.54;;;17.35;75.87
37758;BME280;23599;50.304;18.928;2022-10-24T07:13:46;101708.97;;;17.33;75.77
37758;BME280;23599;50.304;18.928;2022-10-24T07:13:59;101710.69;;;17.34;75.69
37758;BME280;23599;50.304;18.928;2022-10-24T07:14:12;101711.73;;;17.33;75.60
37758;BME280;23599;50.304;18.928;2022-10-24T07:14:26;101715.33;;;17.34;75.54
37758;BME280;23599;50.304;18.928;2022-10-24T07:14:39;101708.97;;;17.33;75.50
37758;BME280;23599;50.304;18.928;2022-10-24T07:14:52;101705.20;;;17.34;75.47
37758;BME280;23599;50.304;18.928;2022-10-24T07:14:57;101705.20;;;17.34;75.47
37758;BME280;23599;50.304;18.928;2022-10-24T07:15:11;101706.04;;;17.35;75.47
37758;BME280;23599;50.304;18.928;2022-10-24T07:15:15;101702.44;;;17.34;75.64
37758;BME280;23599;50.304;18.928;2022-10-24T07:15:29;101714.13;;;17.37;75.49
37758;BME280;23599;50.304;18.928;2022-10-24T07:15:42;101708.63;;;17.37;75.46
37758;BME280;23599;50.304;18.928;2022-10-24T07:15:55;101706.74;;;17.37;75.45
37758;BME280;23599;50.304;18.928;2022-10-24T07:15:57;101711.39;;;17.37;75.46
37758;BME280;23599;50.304;18.928;2022-10-24T07:16:13;101702.99;;;17.38;75.34
37758;BME280;23599;50.304;18.928;2022-10-24T07:16:27;101704.85;;;17.38;75.46
37758;BME280;23599;50.304;18.928;2022-10-24T07:16:40;101703.84;;;17.39;75.45
37758;BME280;23599;50.304;18.928;2022-10-24T07:16:53;101697.31;;;17.40;75.44
37758;BME280;23599;50.304;18.928;2022-10-24T07:17:06;101700.91;;;17.40;75.42
37758;BME280;23599;50.304;18.928;2022-10-24T07:17:20;101706.41;;;17.40;75.42
37758;BME280;23599;50.304;18.928;2022-10-24T07:17:39;101704.55;;;17.41;75.36
37758;BME280;23599;50.304;18.928;2022-10-24T07:17:52;101707.10;;;17.42;75.35
37758;BME280;23599;50.304;18.928;2022-10-24T07:18:05;101705.21;;;17.43;75.31
37758;BME280;23599;50.304;18.928;2022-10-24T07:18:19;101704.20;;;17.44;75.26
37758;BME280;23599;50.304;18.928;2022-10-24T07:18:32;101701.47;;;17.44;75.20
37758;BME280;23599;50.304;18.928;2022-10-24T07:18:45;101702.31;;;17.44;75.15
37758;BME280;23599;50.304;18.928;2022-10-24T07:18:58;101694.92;;;17.45;75.12
37758;BME280;23599;50.304;18.928;2022-10-24T07:19:00;101696.81;;;17.44;75.13
37758;BME280;23599;50.304;18.928;2022-10-24T07:19:12;101696.81;;;17.44;75.12
37758;BME280;23599;50.304;18.928;2022-10-24T07:19:25;101697.52;;;17.46;75.13
37758;BME280;23599;50.304;18.928;2022-10-24T07:19:38;101700.41;;;17.45;75.10
37758;BME280;23599;50.304;18.928;2022-10-24T07:19:52;101701.12;;;17.47;75.05
37758;BME280;23599;50.304;18.928;2022-10-24T07:20:06;101705.77;;;17.46;75.02
37758;BME280;23599;50.304;18.928;2022-10-24T07:20:19;101700.96;;;17.48;75.02
37758;BME280;23599;50.304;18.928;2022-10-24T07:20:32;101704.56;;;17.49;75.00
37758;BME280;23599;50.304;18.928;2022-10-24T07:20:46;101698.02;;;17.50;74.96
37758;BME280;23599;50.304;18.928;2022-10-24T07:21:04;101690.64;;;17.50;74.89
37758;BME280;23599;50.304;18.928;2022-10-24T07:21:20;101695.98;;;17.52;74.90
37758;BME280;23599;50.304;18.928;2022-10-24T07:21:34;101695.98;;;17.52;74.86
37758;BME280;23599;50.304;18.928;2022-10-24T07:21:48;101688.59;;;17.52;74.81
37758;BME280;23599;50.304;18.928;2022-10-24T07:22:01;101691.34;;;17.52;74.74
37758;BME280;23599;50.304;18.928;2022-10-24T07:22:02;101686.68;;;17.53;74.72
37758;BME280;23599;50.304;18.928;2022-10-24T07:22:16;101681.04;;;17.54;74.65
37758;BME280;23599;50.304;18.928;2022-10-24T07:22:28;101679.30;;;17.53;74.59
37758;BME280;23599;50.304;18.928;2022-10-24T07:22:42;101678.28;;;17.54;74.55
37758;BME280;23599;50.304;18.928;2022-10-24T07:22:57;101686.54;;;17.54;74.52
37758;BME280;23599;50.304;18.928;2022-10-24T07:23:11;101676.23;;;17.57;74.54
37758;BME280;23599;50.304;18.928;2022-10-24T07:23:26;101681.73;;;17.57;74.52
37758;BME280;23599;50.304;18.928;2022-10-24T07:23:39;101675.35;;;17.56;74.47
37758;BME280;23599;50.304;18.928;2022-10-24T07:23:54;101669.70;;;17.58;74.42
37758;BME280;23599;50.304;18.928;2022-10-24T07:24:11;101683.30;;;17.59;74.41
37758;BME280;23599;50.304;18.928;2022-10-24T07:24:27;101680.35;;;17.61;74.41
37758;BME280;23599;50.304;18.928;2022-10-24T07:24:42;101679.34;;;17.62;74.40
37758;BME280;23599;50.304;18.928;2022-10-24T07:24:55;101674.70;;;17.62;74.37
37758;BME280;23599;50.304;18.928;2022-10-24T07:25:09;101666.26;;;17.64;74.28
37758;BME280;23599;50.304;18.928;2022-10-24T07:25:11;101680.02;;;17.64;74.27
37758;BME280;23599;50.304;18.928;2022-10-24T07:25:23;101673.51;;;17.65;74.26
37758;BME280;23599;50.304;18.928;2022-10-24T07:25:38;101675.21;;;17.66;74.25
37758;BME280;23599;50.304;18.928;2022-10-24T07:25:51;101675.21;;;17.66;74.21
37758;BME280;23599;50.304;18.928;2022-10-24T07:26:07;101669.55;;;17.67;74.18
37758;BME280;23599;50.304;18.928;2022-10-24T07:26:21;101668.52;;;17.68;74.15
37758;BME280;23599;50.304;18.928;2022-10-24T07:26:36;101671.95;;;17.70;74.13
37758;BME280;23599;50.304;18.928;2022-10-24T07:26:50;101671.95;;;17.70;74.06
37758;BME280;23599;50.304;18.928;2022-10-24T07:27:03;101669.02;;;17.72;73.95
37758;BME280;23599;50.304;18.928;2022-10-24T07:27:15;101674.36;;;17.73;73.90
37758;BME280;23599;50.304;18.928;2022-10-24T07:27:28;101673.51;;;17.73;73.87
37758;BME280;23599;50.304;18.928;2022-10-24T07:27:41;101668.86;;;17.73;73.83
37758;BME280;23599;50.304;18.928;2022-10-24T07:27:54;101670.57;;;17.74;73.79
37758;BME280;23599;50.304;18.928;2022-10-24T07:28:08;101660.62;;;17.73;73.63
37758;BME280;23599;50.304;18.928;2022-10-24T07:28:22;101660.27;;;17.76;73.73
37758;BME280;23599;50.304;18.928;2022-10-24T07:28:24;101658.57;;;17.75;73.71
37758;BME280;23599;50.304;18.928;2022-10-24T07:28:38;101657.35;;;17.78;73.70
37758;BME280;23599;50.304;18.928;2022-10-24T07:28:53;101666.47;;;17.78;73.68
37758;BME280;23599;50.304;18.928;2022-10-24T07:29:09;101661.70;;;17.81;73.65
37758;BME280;23599;50.304;18.928;2022-10-24T07:29:22;101662.55;;;17.81;73.61
37758;BME280;23599;50.304;18.928;2022-10-24T07:29:38;101664.25;;;17.82;73.52
37758;BME280;23599;50.304;18.928;2022-10-24T07:29:53;101665.14;;;17.83;73.46
37758;BME280;23599;50.304;18.928;2022-10-24T07:30:07;101664.95;;;17.84;73.41
37758;BME280;23599;50.304;18.928;2022-10-24T07:30:20;101658.60;;;17.84;73.36
37758;BME280;23599;50.304;18.928;2022-10-24T07:30:37;101663.05;;;17.85;73.30
37758;BME280;23599;50.304;18.928;2022-10-24T07:30:50;101664.80;;;17.86;73.23
37758;BME280;23599;50.304;18.928;2022-10-24T07:31:04;101662.05;;;17.86;73.14
37758;BME280;23599;50.304;18.928;2022-10-24T07:31:17;101660.15;;;17.86;73.10
37758;BME280;23599;50.304;18.928;2022-10-24T07:31:33;101663.75;;;17.87;73.08
37758;BME280;23599;50.304;18.928;2022-10-24T07:31:35;101661.00;;;17.87;73.06
37758;BME280;23599;50.304;18.928;2022-10-24T07:31:48;101667.35;;;17.87;73.08
37758;BME280;23599;50.304;18.928;2022-10-24T07:32:01;101669.10;;;17.88;73.06
37758;BME280;23599;50.304;18.928;2022-10-24T07:32:14;101666.16;;;17.90;73.06
37758;BME280;23599;50.304;18.928;2022-10-24T07:32:27;101660.65;;;17.90;73.02
37758;BME280;23599;50.304;18.928;2022-10-24T07:32:40;101661.51;;;17.90;72.94
37758;BME280;23599;50.304;18.928;2022-10-24T07:32:53;101663.25;;;17.91;72.88
37758;BME280;23599;50.304;18.928;2022-10-24T07:33:07;101665.14;;;17.91;72.84
37758;BME280;23599;50.304;18.928;2022-10-24T07:33:20;101661.51;;;17.90;72.76
37758;BME280;23599;50.304;18.928;2022-10-24T07:33:35;101662.40;;;17.91;72.70
37758;BME280;23599;50.304;18.928;2022-10-24T07:33:49;101659.64;;;17.91;72.70
37758;BME280;23599;50.304;18.928;2022-10-24T07:34:05;101666.16;;;17.90;72.65
37758;BME280;23599;50.304;18.928;2022-10-24T07:34:18;101655.15;;;17.90;72.64
37758;BME280;23599;50.304;18.928;2022-10-24T07:34:31;101659.80;;;17.89;72.66
37758;BME280;23599;50.304;18.928;2022-10-24T07:34:46;101674.41;;;17.90;72.68
37758;BME280;23599;50.304;18.928;2022-10-24T07:34:50;101669.95;;;17.89;72.68
37758;BME280;23599;50.304;18.928;2022-10-24T07:35:03;101668.05;;;17.89;72.71
37758;BME280;23599;50.304;18.928;2022-10-24T07:35:16;101672.70;;;17.89;72.71
37758;BME280;23599;50.304;18.928;2022-10-24T07:35:29;101675.45;;;17.89;72.69
37758;BME280;23599;50.304;18.928;2022-10-24T07:35:42;101667.35;;;17.87;72.70
37758;BME280;23599;50.304;18.928;2022-10-24T07:35:55;101668.05;;;17.89;72.73
37758;BME280;23599;50.304;18.928;2022-10-24T07:36:15;101668.05;;;17.89;72.74
37758;BME280;23599;50.304;18.928;2022-10-24T07:36:30;101666.16;;;17.90;72.76
37758;BME280;23599;50.304;18.928;2022-10-24T07:36:43;101666.16;;;17.90;72.70
37758;BME280;23599;50.304;18.928;2022-10-24T07:36:56;101666.16;;;17.90;72.68
37758;BME280;23599;50.304;18.928;2022-10-24T07:37:09;101665.30;;;17.89;72.65
37758;BME280;23599;50.304;18.928;2022-10-24T07:37:25;101671.65;;;17.90;72.62
37758;BME280;23599;50.304;18.928;2022-10-24T07:37:38;101674.25;;;17.91;72.63
37758;BME280;23599;50.304;18.928;2022-10-24T07:37:52;101673.40;;;17.91;72.61
37758;BME280;23599;50.304;18.928;2022-10-24T07:37:54;101677.85;;;17.92;72.61
37758;BME280;23599;50.304;18.928;2022-10-24T07:38:06;101679.76;;;17.91;72.57
37758;BME280;23599;50.304;18.928;2022-10-24T07:38:19;101675.10;;;17.92;72.56
37758;BME280;23599;50.304;18.928;2022-10-24T07:38:33;101675.96;;;17.92;72.55
37758;BME280;23599;50.304;18.928;2022-10-24T07:38:51;101672.36;;;17.92;72.55
37758;BME280;23599;50.304;18.928;2022-10-24T07:39:06;101672.20;;;17.93;72.61
37758;BME280;23599;50.304;18.928;2022-10-24T07:39:11;101678.55;;;17.94;72.80
37758;BME280;23599;50.304;18.928;2022-10-24T07:39:24;101671.15;;;17.94;72.61
37758;BME280;23599;50.304;18.928;2022-10-24T07:39:38;101673.05;;;17.94;72.60
37758;BME280;23599;50.304;18.928;2022-10-24T07:39:51;101673.75;;;17.96;72.56
37758;BME280;23599;50.304;18.928;2022-10-24T07:40:04;101674.59;;;17.96;72.52
37758;BME280;23599;50.304;18.928;2022-10-24T07:40:18;101672.70;;;17.97;72.49
37758;BME280;23599;50.304;18.928;2022-10-24T07:40:31;101676.15;;;17.99;72.44
37758;BME280;23599;50.304;18.928;2022-10-24T07:40:44;101674.41;;;17.98;72.42
37758;BME280;23599;50.304;18.928;2022-10-24T07:41:10;101676.15;;;17.99;72.42
37758;BME280;23599;50.304;18.928;2022-10-24T07:41:12;101669.60;;;18.00;72.43
37758;BME280;23599;50.304;18.928;2022-10-24T07:41:27;101677.85;;;18.00;72.47
37758;BME280;23599;50.304;18.928;2022-10-24T07:41:41;101672.20;;;18.02;72.47
37758;BME280;23599;50.304;18.928;2022-10-24T07:41:54;101675.80;;;18.02;72.43
37758;BME280;23599;50.304;18.928;2022-10-24T07:42:09;101673.90;;;18.03;72.40
37758;BME280;23599;50.304;18.928;2022-10-24T07:42:15;101671.15;;;18.03;72.31
37758;BME280;23599;50.304;18.928;2022-10-24T07:42:32;101679.25;;;18.04;72.40
37758;BME280;23599;50.304;18.928;2022-10-24T07:42:37;101677.51;;;18.03;72.26
37758;BME280;23599;50.304;18.928;2022-10-24T07:42:41;101669.10;;;18.05;72.38
37758;BME280;23599;50.304;18.928;2022-10-24T07:42:46;101665.30;;;18.06;72.11
37758;BME280;23599;50.304;18.928;2022-10-24T07:43:00;101679.95;;;18.06;72.36
37758;BME280;23599;50.304;18.928;2022-10-24T07:43:13;101674.45;;;18.06;72.29
37758;BME280;23599;50.304;18.928;2022-10-24T07:43:28;101668.74;;;18.08;72.25
37758;BME280;23599;50.304;18.928;2022-10-24T07:43:42;101668.74;;;18.08;72.24
37758;BME280;23599;50.304;18.928;2022-10-24T07:43:58;101667.70;;;18.09;72.24
37758;BME280;23599;50.304;18.928;2022-10-24T07:44:14;101667.55;;;18.10;72.23
37758;BME280;23599;50.304;18.928;2022-10-24T07:44:15;101666.70;;;18.10;72.22
37758;BME280;23599;50.304;18.928;2022-10-24T07:44:28;101670.30;;;18.10;72.17
37758;BME280;23599;50.304;18.928;2022-10-24T07:44:41;101665.64;;;18.11;72.08
37758;BME280;23599;50.304;18.928;2022-10-24T07:44:54;101655.68;;;18.10;71.97
37758;BME280;23599;50.304;18.928;2022-10-24T07:45:08;101660.14;;;18.11;71.94
37758;BME280;23599;50.304;18.928;2022-10-24T07:45:21;101665.64;;;18.11;71.95
37758;BME280;23599;50.304;18.928;2022-10-24T07:45:37;101659.13;;;18.12;71.96
37758;BME280;23599;50.304;18.928;2022-10-24T07:45:50;101648.12;;;18.12;71.96
37758;BME280;23599;50.304;18.928;2022-10-24T07:46:07;101651.73;;;18.12;71.95
37758;BME280;23599;50.304;18.928;2022-10-24T07:46:21;101645.38;;;18.12;71.97
37758;BME280;23599;50.304;18.928;2022-10-24T07:46:35;101658.08;;;18.13;71.96
37758;BME280;23599;50.304;18.928;2022-10-24T07:46:51;101651.54;;;18.14;71.96
37758;BME280;23599;50.304;18.928;2022-10-24T07:47:04;101648.78;;;18.14;71.92
37758;BME280;23599;50.304;18.928;2022-10-24T07:47:23;101648.62;;;18.15;71.90
37758;BME280;23599;50.304;18.928;2022-10-24T07:47:25;101648.62;;;18.15;71.90